sensor_id;sensor_type;location;lat;lon;timestamp;pressure;altitude;pressure_sealevel;temperature;humidity
19600;BME280;9947;57.722;12.012;2024-03-08T00:00:18;102388.84;;;-2.93;100.00
19600;BME280;9947;57.722;12.012;2024-03-08T00:02:47;102395.00;;;-2.94;100.00
19600;BME280;9947;57.722;12.012;2024-03-08T00:05:24;102398.53;;;-2.96;100.00
19600;BME280;9947;57.722;12.012;2024-03-08T00:07:52;102398.53;;;-2.95;100.00
19600;BME280;9947;57.722;12.012;2024-03-08T00:10:20;102403.84;;;-2.93;100.00
19600;BME280;9947;57.722;12.012;2024-03-08T00:12:48;102403.81;;;-2.98;100.00
19600;BME280;9947;57.722;12.012;2024-03-08T00:15:17;102402.97;;;-2.92;100.00
19600;BME280;9947;57.722;12.012;2024-03-08T00:17:45;102404.72;;;-2.94;100.00
19600;BME280;9947;57.722;12.012;2024-03-08T00:22:43;102417.06;;;-2.96;100.00
19600;BME280;9947;57.722;12.012;2024-03-08T00:25:12;102411.78;;;-2.95;100.00
19600;BME280;9947;57.722;12.012;2024-03-08T00:27:39;102410.88;;;-2.97;100.00
19600;BME280;9947;57.722;12.012;2024-03-08T00:30:07;102416.16;;;-2.97;100.00
19600;BME280;9947;57.722;12.012;2024-03-08T00:32:36;102417.91;;;-3.03;100.00
19600;BME280;9947;57.722;12.012;2024-03-08T00:35:18;102422.28;;;-3.10;100.00
19600;BME280;9947;57.722;12.012;2024-03-08T00:37:48;102418.75;;;-3.11;100.00
19600;BME280;9947;57.722;12.012;2024-03-08T00:42:41;102424.88;;;-3.16;100.00
19600;BME280;9947;57.722;12.012;2024-03-08T00:47:34;102428.38;;;-3.20;100.00
19600;BME280;9947;57.722;12.012;2024-03-08T00:50:05;102434.53;;;-3.23;100.00
19600;BME280;9947;57.722;12.012;2024-03-08T00:52:35;102430.06;;;-3.30;100.00
19600;BME280;9947;57.722;12.012;2024-03-08T00:55:04;102433.59;;;-3.32;100.00
19600;BME280;9947;57.722;12.012;2024-03-08T00:57:34;102437.13;;;-3.27;100.00
19600;BME280;9947;57.722;12.012;2024-03-08T01:00:06;102430.97;;;-3.26;100.00
19600;BME280;9947;57.722;12.012;2024-03-08T01:02:37;102432.72;;;-3.27;100.00
19600;BME280;9947;57.722;12.012;2024-03-08T01:05:08;102427.44;;;-3.27;100.00
19600;BME280;9947;57.722;12.012;2024-03-08T01:07:36;102440.66;;;-3.28;100.00
19600;BME280;9947;57.722;12.012;2024-03-08T01:10:06;102437.13;;;-3.30;100.00
19600;BME280;9947;57.722;12.012;2024-03-08T01:12:35;102438.03;;;-3.27;100.00
19600;BME280;9947;57.722;12.012;2024-03-08T01:15:02;102440.69;;;-3.22;100.00
19600;BME280;9947;57.722;12.012;2024-03-08T01:17:29;102441.56;;;-3.25;100.00
19600;BME280;9947;57.722;12.012;2024-03-08T01:19:59;102438.91;;;-3.26;100.00
19600;BME280;9947;57.722;12.012;2024-03-08T01:22:26;102429.19;;;-3.29;100.00
19600;BME280;9947;57.722;12.012;2024-03-08T01:24:58;102428.28;;;-3.32;100.00
19600;BME280;9947;57.722;12.012;2024-03-08T01:27:27;102430.91;;;-3.35;100.00
19600;BME280;9947;57.722;12.012;2024-03-08T01:29:53;102426.53;;;-3.30;100.00
19600;BME280;9947;57.722;12.012;2024-03-08T01:32:21;102426.50;;;-3.35;100.00
19600;BME280;9947;57.722;12.012;2024-03-08T01:34:49;102424.75;;;-3.34;100.00
19600;BME280;9947;57.722;12.012;2024-03-08T01:37:18;102414.09;;;-3.41;100.00
19600;BME280;9947;57.722;12.012;2024-03-08T01:39:45;102419.38;;;-3.44;100.00
19600;BME280;9947;57.722;12.012;2024-03-08T01:44:42;102413.22;;;-3.43;100.00
19600;BME280;9947;57.722;12.012;2024-03-08T01:49:34;102416.72;;;-3.44;100.00
19600;BME280;9947;57.722;12.012;2024-03-08T01:52:04;102407.91;;;-3.47;100.00
19600;BME280;9947;57.722;12.012;2024-03-08T01:54:32;102405.22;;;-3.53;100.00
19600;BME280;9947;57.722;12.012;2024-03-08T01:57:02;102404.31;;;-3.57;100.00
19600;BME280;9947;57.722;12.012;2024-03-08T01:59:29;102397.25;;;-3.59;100.00
19600;BME280;9947;57.722;12.012;2024-03-08T02:02:01;102391.06;;;-3.63;100.00
19600;BME280;9947;57.722;12.012;2024-03-08T02:04:31;102389.28;;;-3.64;100.00
19600;BME280;9947;57.722;12.012;2024-03-08T02:06:59;102394.59;;;-3.62;100.00
19600;BME280;9947;57.722;12.012;2024-03-08T02:09:27;102388.41;;;-3.63;100.00
19600;BME280;9947;57.722;12.012;2024-03-08T02:11:55;102388.38;;;-3.64;100.00
19600;BME280;9947;57.722;12.012;2024-03-08T02:14:25;102392.84;;;-3.59;100.00
19600;BME280;9947;57.722;12.012;2024-03-08T02:16:52;102384.84;;;-3.65;100.00
19600;BME280;9947;57.722;12.012;2024-03-08T02:19:21;102384.88;;;-3.63;100.00
19600;BME280;9947;57.722;12.012;2024-03-08T02:21:49;102388.38;;;-3.64;100.00
19600;BME280;9947;57.722;12.012;2024-03-08T02:26:41;102387.47;;;-3.65;100.00
19600;BME280;9947;57.722;12.012;2024-03-08T02:31:35;102376.91;;;-3.66;100.00
19600;BME280;9947;57.722;12.012;2024-03-08T02:34:02;102379.56;;;-3.65;100.00
19600;BME280;9947;57.722;12.012;2024-03-08T02:36:30;102382.25;;;-3.62;100.00
19600;BME280;9947;57.722;12.012;2024-03-08T02:39:02;102374.25;;;-3.68;100.00
19600;BME280;9947;57.722;12.012;2024-03-08T02:41:30;102382.16;;;-3.73;100.00
19600;BME280;9947;57.722;12.012;2024-03-08T02:43:58;102368.03;;;-3.76;100.00
19600;BME280;9947;57.722;12.012;2024-03-08T02:46:25;102368.00;;;-3.78;100.00
19600;BME280;9947;57.722;12.012;2024-03-08T02:48:52;102366.19;;;-3.85;100.00
19600;BME280;9947;57.722;12.012;2024-03-08T02:51:20;102365.28;;;-3.90;100.00
19600;BME280;9947;57.722;12.012;2024-03-08T02:53:48;102360.81;;;-3.95;100.00
19600;BME280;9947;57.722;12.012;2024-03-08T02:58:50;102344.94;;;-3.97;100.00
19600;BME280;9947;57.722;12.012;2024-03-08T03:01:18;102356.41;;;-3.93;100.00
19600;BME280;9947;57.722;12.012;2024-03-08T03:03:48;102346.72;;;-3.96;100.00
19600;BME280;9947;57.722;12.012;2024-03-08T03:08:40;102340.50;;;-4.03;100.00
19600;BME280;9947;57.722;12.012;2024-03-08T03:11:12;102344.91;;;-4.03;100.00
19600;BME280;9947;57.722;12.012;2024-03-08T03:13:40;102338.72;;;-4.04;100.00
19600;BME280;9947;57.722;12.012;2024-03-08T03:16:17;102338.72;;;-4.05;100.00
19600;BME280;9947;57.722;12.012;2024-03-08T03:18:45;102335.19;;;-4.06;100.00
19600;BME280;9947;57.722;12.012;2024-03-08T03:21:17;102336.09;;;-4.05;100.00
19600;BME280;9947;57.722;12.012;2024-03-08T03:23:44;102327.25;;;-4.10;100.00
19600;BME280;9947;57.722;12.012;2024-03-08T03:28:36;102322.81;;;-4.13;100.00
19600;BME280;9947;57.722;12.012;2024-03-08T03:31:05;102318.44;;;-4.11;100.00
19600;BME280;9947;57.722;12.012;2024-03-08T03:33:35;102316.66;;;-4.12;100.00
19600;BME280;9947;57.722;12.012;2024-03-08T03:36:02;102324.59;;;-4.10;100.00
19600;BME280;9947;57.722;12.012;2024-03-08T03:38:30;102316.63;;;-4.15;100.00
19600;BME280;9947;57.722;12.012;2024-03-08T03:40:57;102320.09;;;-4.19;100.00
19600;BME280;9947;57.722;12.012;2024-03-08T03:43:32;102324.50;;;-4.18;100.00
19600;BME280;9947;57.722;12.012;2024-03-08T03:45:59;102315.63;;;-4.26;100.00
19600;BME280;9947;57.722;12.012;2024-03-08T03:48:28;102310.34;;;-4.29;100.00
19600;BME280;9947;57.722;12.012;2024-03-08T03:50:56;102307.69;;;-4.30;100.00
19600;BME280;9947;57.722;12.012;2024-03-08T03:53:25;102305.88;;;-4.35;100.00
19600;BME280;9947;57.722;12.012;2024-03-08T03:55:52;102301.44;;;-4.40;100.00
19600;BME280;9947;57.722;12.012;2024-03-08T03:58:20;102294.34;;;-4.44;100.00
19600;BME280;9947;57.722;12.012;2024-03-08T04:03:23;102298.00;;;-4.31;100.00
19600;BME280;9947;57.722;12.012;2024-03-08T04:05:50;102298.03;;;-4.25;100.00
19600;BME280;9947;57.722;12.012;2024-03-08T04:08:19;102289.19;;;-4.30;100.00
19600;BME280;9947;57.722;12.012;2024-03-08T04:10:46;102290.97;;;-4.29;100.00
19600;BME280;9947;57.722;12.012;2024-03-08T04:13:13;102298.88;;;-4.31;100.00
19600;BME280;9947;57.722;12.012;2024-03-08T04:15:41;102287.41;;;-4.35;100.00
19600;BME280;9947;57.722;12.012;2024-03-08T04:18:09;102283.00;;;-4.36;100.00
19600;BME280;9947;57.722;12.012;2024-03-08T04:20:39;102283.88;;;-4.35;100.00
19600;BME280;9947;57.722;12.012;2024-03-08T04:23:12;102282.16;;;-4.31;100.00
19600;BME280;9947;57.722;12.012;2024-03-08T04:25:40;102283.94;;;-4.26;100.00
19600;BME280;9947;57.722;12.012;2024-03-08T04:28:10;102277.81;;;-4.22;100.00
19600;BME280;9947;57.722;12.012;2024-03-08T04:30:38;102276.00;;;-4.29;100.00
19600;BME280;9947;57.722;12.012;2024-03-08T04:33:08;102279.47;;;-4.38;100.00
19600;BME280;9947;57.722;12.012;2024-03-08T04:35:36;102266.22;;;-4.42;100.00
19600;BME280;9947;57.722;12.012;2024-03-08T04:38:03;102268.88;;;-4.42;100.00
19600;BME280;9947;57.722;12.012;2024-03-08T04:40:32;102268.81;;;-4.45;100.00
19600;BME280;9947;57.722;12.012;2024-03-08T04:45:26;102258.22;;;-4.51;100.00
19600;BME280;9947;57.722;12.012;2024-03-08T04:47:53;102255.53;;;-4.54;100.00
19600;BME280;9947;57.722;12.012;2024-03-08T04:50:20;102255.56;;;-4.50;100.00
19600;BME280;9947;57.722;12.012;2024-03-08T04:52:47;102249.38;;;-4.53;100.00
19600;BME280;9947;57.722;12.012;2024-03-08T04:55:16;102244.94;;;-4.60;100.00
19600;BME280;9947;57.722;12.012;2024-03-08T04:57:46;102237.88;;;-4.61;100.00
19600;BME280;9947;57.722;12.012;2024-03-08T05:00:14;102242.28;;;-4.60;100.00
19600;BME280;9947;57.722;12.012;2024-03-08T05:02:47;102237.91;;;-4.60;100.00
19600;BME280;9947;57.722;12.012;2024-03-08T05:05:19;102235.28;;;-4.58;100.00
19600;BME280;9947;57.722;12.012;2024-03-08T05:07:45;102237.03;;;-4.59;100.00
19600;BME280;9947;57.722;12.012;2024-03-08T05:10:13;102237.03;;;-4.57;100.00
19600;BME280;9947;57.722;12.012;2024-03-08T05:12:42;102233.50;;;-4.61;100.00
19600;BME280;9947;57.722;12.012;2024-03-08T05:15:09;102224.72;;;-4.58;100.00
19600;BME280;9947;57.722;12.012;2024-03-08T05:17:38;102225.59;;;-4.59;100.00
19600;BME280;9947;57.722;12.012;2024-03-08T05:20:08;102221.22;;;-4.57;100.00
19600;BME280;9947;57.722;12.012;2024-03-08T05:22:37;102218.56;;;-4.59;100.00
19600;BME280;9947;57.722;12.012;2024-03-08T05:25:06;102222.97;;;-4.56;100.00
19600;BME280;9947;57.722;12.012;2024-03-08T05:27:35;102220.31;;;-4.61;100.00
19600;BME280;9947;57.722;12.012;2024-03-08T05:32:32;102215.91;;;-4.62;100.00
19600;BME280;9947;57.722;12.012;2024-03-08T05:37:28;102213.28;;;-4.57;100.00
19600;BME280;9947;57.722;12.012;2024-03-08T05:42:36;102199.16;;;-4.64;100.00
19600;BME280;9947;57.722;12.012;2024-03-08T05:47:33;102201.78;;;-4.66;100.00
19600;BME280;9947;57.722;12.012;2024-03-08T05:50:05;102197.44;;;-4.59;100.00
19600;BME280;9947;57.722;12.012;2024-03-08T05:52:34;102199.19;;;-4.61;100.00
19600;BME280;9947;57.722;12.012;2024-03-08T05:55:03;102200.03;;;-4.67;100.00
19600;BME280;9947;57.722;12.012;2024-03-08T05:57:32;102202.69;;;-4.62;100.00
19600;BME280;9947;57.722;12.012;2024-03-08T06:00:04;102195.66;;;-4.64;100.00
19600;BME280;9947;57.722;12.012;2024-03-08T06:02:32;102193.06;;;-4.58;100.00
19600;BME280;9947;57.722;12.012;2024-03-08T06:05:00;102191.28;;;-4.59;100.00
19600;BME280;9947;57.722;12.012;2024-03-08T06:07:30;102193.06;;;-4.58;100.00
19600;BME280;9947;57.722;12.012;2024-03-08T06:12:27;102187.81;;;-4.52;100.00
19600;BME280;9947;57.722;12.012;2024-03-08T06:15:02;102187.84;;;-4.49;100.00
19600;BME280;9947;57.722;12.012;2024-03-08T06:17:29;102180.78;;;-4.50;100.00
19600;BME280;9947;57.722;12.012;2024-03-08T06:22:24;102169.41;;;-4.45;100.00
19600;BME280;9947;57.722;12.012;2024-03-08T06:24:53;102173.88;;;-4.39;100.00
19600;BME280;9947;57.722;12.012;2024-03-08T06:27:23;102179.19;;;-4.33;100.00
19600;BME280;9947;57.722;12.012;2024-03-08T06:29:51;102171.31;;;-4.25;100.00
19600;BME280;9947;57.722;12.012;2024-03-08T06:32:19;102173.06;;;-4.24;100.00
19600;BME280;9947;57.722;12.012;2024-03-08T06:34:47;102171.34;;;-4.21;100.00
19600;BME280;9947;57.722;12.012;2024-03-08T06:37:15;102175.81;;;-4.11;100.00
19600;BME280;9947;57.722;12.012;2024-03-08T06:39:47;102171.44;;;-4.06;100.00
19600;BME280;9947;57.722;12.012;2024-03-08T06:42:14;102174.97;;;-4.04;100.00
19600;BME280;9947;57.722;12.012;2024-03-08T06:44:40;102172.38;;;-3.91;100.00
19600;BME280;9947;57.722;12.012;2024-03-08T06:47:15;102169.81;;;-3.85;100.00
19600;BME280;9947;57.722;12.012;2024-03-08T06:49:42;102170.75;;;-3.69;100.00
19600;BME280;9947;57.722;12.012;2024-03-08T06:52:11;102163.69;;;-3.70;100.00
19600;BME280;9947;57.722;12.012;2024-03-08T06:54:39;102163.75;;;-3.63;100.00
19600;BME280;9947;57.722;12.012;2024-03-08T06:57:06;102162.00;;;-3.55;100.00
19600;BME280;9947;57.722;12.012;2024-03-08T06:59:38;102162.03;;;-3.46;100.00
19600;BME280;9947;57.722;12.012;2024-03-08T07:02:06;102155.88;;;-3.38;100.00
19600;BME280;9947;57.722;12.012;2024-03-08T07:04:36;102146.25;;;-3.26;100.00
19600;BME280;9947;57.722;12.012;2024-03-08T07:07:06;102151.53;;;-3.18;100.00
19600;BME280;9947;57.722;12.012;2024-03-08T07:09:35;102147.19;;;-3.05;100.00
19600;BME280;9947;57.722;12.012;2024-03-08T07:12:09;102147.19;;;-3.01;100.00
19600;BME280;9947;57.722;12.012;2024-03-08T07:14:39;102139.25;;;-2.90;100.00
19600;BME280;9947;57.722;12.012;2024-03-08T07:17:06;102146.31;;;-2.82;100.00
19600;BME280;9947;57.722;12.012;2024-03-08T07:19:36;102141.03;;;-2.68;100.00
19600;BME280;9947;57.722;12.012;2024-03-08T07:24:28;102141.91;;;-2.54;100.00
19600;BME280;9947;57.722;12.012;2024-03-08T07:27:05;102138.38;;;-2.50;100.00
19600;BME280;9947;57.722;12.012;2024-03-08T07:29:32;102137.47;;;-2.44;100.00
19600;BME280;9947;57.722;12.012;2024-03-08T07:34:24;102130.38;;;-2.14;100.00
19600;BME280;9947;57.722;12.012;2024-03-08T07:36:54;102125.06;;;-2.07;100.00
19600;BME280;9947;57.722;12.012;2024-03-08T07:39:22;102120.63;;;-1.97;100.00
19600;BME280;9947;57.722;12.012;2024-03-08T07:41:53;102105.53;;;-1.83;100.00
19600;BME280;9947;57.722;12.012;2024-03-08T07:44:23;102101.09;;;-1.75;100.00
19600;BME280;9947;57.722;12.012;2024-03-08T07:46:51;102093.09;;;-1.67;100.00
19600;BME280;9947;57.722;12.012;2024-03-08T07:49:18;102087.75;;;-1.61;100.00
19600;BME280;9947;57.722;12.012;2024-03-08T07:51:46;102073.56;;;-1.49;100.00
19600;BME280;9947;57.722;12.012;2024-03-08T07:54:16;102062.97;;;-1.49;100.00
19600;BME280;9947;57.722;12.012;2024-03-08T07:56:43;102056.69;;;-1.36;100.00
19600;BME280;9947;57.722;12.012;2024-03-08T07:59:10;102043.38;;;-1.27;100.00
19600;BME280;9947;57.722;12.012;2024-03-08T08:01:37;102022.97;;;-1.19;100.00
19600;BME280;9947;57.722;12.012;2024-03-08T08:06:33;101998.00;;;-0.97;100.00
19600;BME280;9947;57.722;12.012;2024-03-08T08:09:06;101984.56;;;-0.81;100.00
19600;BME280;9947;57.722;12.012;2024-03-08T08:11:42;101959.66;;;-0.67;100.00
19600;BME280;9947;57.722;12.012;2024-03-08T08:14:09;101934.69;;;-0.53;100.00
19600;BME280;9947;57.722;12.012;2024-03-08T08:16:38;101924.84;;;-0.44;100.00
19600;BME280;9947;57.722;12.012;2024-03-08T08:19:07;101911.41;;;-0.32;100.00
19600;BME280;9947;57.722;12.012;2024-03-08T08:21:34;101894.44;;;-0.20;100.00
19600;BME280;9947;57.722;12.012;2024-03-08T08:24:02;101873.94;;;-0.13;100.00
19600;BME280;9947;57.722;12.012;2024-03-08T08:26:30;101846.31;;;0.00;100.00
19600;BME280;9947;57.722;12.012;2024-03-08T08:31:25;101782.97;;;0.23;100.00
19600;BME280;9947;57.722;12.012;2024-03-08T08:33:54;101743.66;;;0.41;100.00
19600;BME280;9947;57.722;12.012;2024-03-08T08:36:23;101700.09;;;0.46;100.00
19600;BME280;9947;57.722;12.012;2024-03-08T08:38:50;101658.34;;;0.50;100.00
19600;BME280;9947;57.722;12.012;2024-03-08T08:41:19;101609.22;;;0.66;100.00
19600;BME280;9947;57.722;12.012;2024-03-08T08:43:47;101555.59;;;0.84;100.00
19600;BME280;9947;57.722;12.012;2024-03-08T08:46:17;101501.44;;;0.85;100.00
19600;BME280;9947;57.722;12.012;2024-03-08T08:48:47;101446.03;;;1.00;100.00
19600;BME280;9947;57.722;12.012;2024-03-08T08:51:14;101387.28;;;1.07;100.00
19600;BME280;9947;57.722;12.012;2024-03-08T08:53:42;101329.34;;;1.15;100.00
19600;BME280;9947;57.722;12.012;2024-03-08T08:56:12;101271.69;;;1.14;100.00
19600;BME280;9947;57.722;12.012;2024-03-08T08:58:40;101227.84;;;1.26;100.00
19600;BME280;9947;57.722;12.012;2024-03-08T09:01:09;101171.47;;;1.40;100.00
19600;BME280;9947;57.722;12.012;2024-03-08T09:03:37;101155.19;;;1.49;100.00
19600;BME280;9947;57.722;12.012;2024-03-08T09:06:07;101111.09;;;1.67;100.00
19600;BME280;9947;57.722;12.012;2024-03-08T09:08:38;101068.94;;;1.78;100.00
19600;BME280;9947;57.722;12.012;2024-03-08T09:11:06;101044.47;;;1.92;100.00
19600;BME280;9947;57.722;12.012;2024-03-08T09:13:32;101011.00;;;2.06;100.00
19600;BME280;9947;57.722;12.012;2024-03-08T09:15:59;100992.59;;;2.00;100.00
19600;BME280;9947;57.722;12.012;2024-03-08T09:18:28;100970.56;;;2.19;100.00
19600;BME280;9947;57.722;12.012;2024-03-08T09:23:24;100945.44;;;2.24;100.00
19600;BME280;9947;57.722;12.012;2024-03-08T09:25:52;100939.19;;;2.25;100.00
19600;BME280;9947;57.722;12.012;2024-03-08T09:28:20;100942.06;;;2.42;100.00
19600;BME280;9947;57.722;12.012;2024-03-08T09:30:50;100940.94;;;2.48;100.00
19600;BME280;9947;57.722;12.012;2024-03-08T09:33:19;100952.88;;;2.61;100.00
19600;BME280;9947;57.722;12.012;2024-03-08T09:35:47;100950.56;;;2.74;100.00
19600;BME280;9947;57.722;12.012;2024-03-08T09:38:14;100961.38;;;2.71;100.00
19600;BME280;9947;57.722;12.012;2024-03-08T09:40:42;100962.59;;;2.84;100.00
19600;BME280;9947;57.722;12.012;2024-03-08T09:43:09;100963.22;;;2.91;100.00
19600;BME280;9947;57.722;12.012;2024-03-08T09:45:38;100965.44;;;3.01;100.00
19600;BME280;9947;57.722;12.012;2024-03-08T09:48:10;100968.66;;;3.09;100.00
19600;BME280;9947;57.722;12.012;2024-03-08T09:50:39;100969.28;;;3.16;100.00
19600;BME280;9947;57.722;12.012;2024-03-08T09:53:06;100972.47;;;3.24;100.00
19600;BME280;9947;57.722;12.012;2024-03-08T09:55:34;100986.84;;;3.22;100.00
19600;BME280;9947;57.722;12.012;2024-03-08T09:58:05;100993.66;;;3.29;100.00
19600;BME280;9947;57.722;12.012;2024-03-08T10:03:27;100976.69;;;3.50;100.00
19600;BME280;9947;57.722;12.012;2024-03-08T10:05:54;100969.88;;;3.63;100.00
19600;BME280;9947;57.722;12.012;2024-03-08T10:08:25;100986.59;;;3.68;100.00
19600;BME280;9947;57.722;12.012;2024-03-08T10:10:52;100980.63;;;3.82;100.00
19600;BME280;9947;57.722;12.012;2024-03-08T10:13:21;100995.19;;;3.95;100.00
19600;BME280;9947;57.722;12.012;2024-03-08T10:15:47;100997.31;;;3.87;100.00
19600;BME280;9947;57.722;12.012;2024-03-08T10:18:14;100997.22;;;3.90;100.00
19600;BME280;9947;57.722;12.012;2024-03-08T10:20:44;101006.84;;;3.94;100.00
19600;BME280;9947;57.722;12.012;2024-03-08T10:23:12;101002.34;;;3.95;100.00
19600;BME280;9947;57.722;12.012;2024-03-08T10:25:39;100997.81;;;4.16;100.00
19600;BME280;9947;57.722;12.012;2024-03-08T10:28:07;101019.88;;;4.21;100.00
19600;BME280;9947;57.722;12.012;2024-03-08T10:30:37;101030.09;;;4.31;100.00
19600;BME280;9947;57.722;12.012;2024-03-08T10:33:04;101059.16;;;4.39;100.00
19600;BME280;9947;57.722;12.012;2024-03-08T10:35:32;101066.72;;;4.50;100.00
19600;BME280;9947;57.722;12.012;2024-03-08T10:38:00;101105.88;;;4.52;100.00
19600;BME280;9947;57.722;12.012;2024-03-08T10:40:33;101162.16;;;4.51;100.00
19600;BME280;9947;57.722;12.012;2024-03-08T10:45:31;101316.78;;;4.66;100.00
19600;BME280;9947;57.722;12.012;2024-03-08T10:50:25;101497.53;;;5.00;100.00
19600;BME280;9947;57.722;12.012;2024-03-08T10:52:55;101514.22;;;5.06;100.00
19600;BME280;9947;57.722;12.012;2024-03-08T10:55:28;101568.28;;;5.16;100.00
19600;BME280;9947;57.722;12.012;2024-03-08T10:57:54;101571.91;;;5.15;100.00
19600;BME280;9947;57.722;12.012;2024-03-08T11:00:21;101626.78;;;5.28;100.00
19600;BME280;9947;57.722;12.012;2024-03-08T11:02:52;101657.09;;;5.30;100.00
19600;BME280;9947;57.722;12.012;2024-03-08T11:05:36;101710.91;;;5.47;100.00
19600;BME280;9947;57.722;12.012;2024-03-08T11:08:08;101749.78;;;5.59;100.00
19600;BME280;9947;57.722;12.012;2024-03-08T11:10:48;101807.59;;;5.66;100.00
19600;BME280;9947;57.722;12.012;2024-03-08T11:13:32;101815.47;;;5.71;100.00
19600;BME280;9947;57.722;12.012;2024-03-08T11:16:07;101820.69;;;5.75;100.00
19600;BME280;9947;57.722;12.012;2024-03-08T11:18:35;101851.00;;;5.77;100.00
19600;BME280;9947;57.722;12.012;2024-03-08T11:21:06;101865.78;;;5.87;100.00
19600;BME280;9947;57.722;12.012;2024-03-08T11:23:38;101870.06;;;5.93;100.00
19600;BME280;9947;57.722;12.012;2024-03-08T11:26:20;101882.28;;;6.02;100.00
19600;BME280;9947;57.722;12.012;2024-03-08T11:28:50;101884.66;;;6.09;100.00
19600;BME280;9947;57.722;12.012;2024-03-08T11:31:25;101882.53;;;6.17;100.00
19600;BME280;9947;57.722;12.012;2024-03-08T11:33:55;101890.78;;;6.13;100.00
19600;BME280;9947;57.722;12.012;2024-03-08T11:36:26;101880.03;;;6.13;100.00
19600;BME280;9947;57.722;12.012;2024-03-08T11:38:57;101879.97;;;6.36;100.00
19600;BME280;9947;57.722;12.012;2024-03-08T11:41:25;101884.00;;;6.26;100.00
19600;BME280;9947;57.722;12.012;2024-03-08T11:44:02;101885.28;;;6.38;100.00
19600;BME280;9947;57.722;12.012;2024-03-08T11:46:32;101887.50;;;6.48;100.00
19600;BME280;9947;57.722;12.012;2024-03-08T11:49:02;101881.19;;;6.49;100.00
19600;BME280;9947;57.722;12.012;2024-03-08T11:51:32;101886.22;;;6.59;100.00
19600;BME280;9947;57.722;12.012;2024-03-08T11:54:00;101885.69;;;6.71;100.00
19600;BME280;9947;57.722;12.012;2024-03-08T11:56:30;101879.44;;;6.70;100.00
19600;BME280;9947;57.722;12.012;2024-03-08T12:01:27;101872.19;;;6.72;100.00
19600;BME280;9947;57.722;12.012;2024-03-08T12:06:23;101866.50;;;6.80;100.00
19600;BME280;9947;57.722;12.012;2024-03-08T12:08:52;101868.72;;;6.91;100.00
19600;BME280;9947;57.722;12.012;2024-03-08T12:11:20;101863.94;;;6.97;100.00
19600;BME280;9947;57.722;12.012;2024-03-08T12:13:48;101862.81;;;7.03;100.00
19600;BME280;9947;57.722;12.012;2024-03-08T12:16:18;101866.84;;;7.13;100.00
19600;BME280;9947;57.722;12.012;2024-03-08T12:18:48;101862.03;;;7.20;100.00
19600;BME280;9947;57.722;12.012;2024-03-08T12:21:15;101861.91;;;7.23;100.00
19600;BME280;9947;57.722;12.012;2024-03-08T12:23:45;101855.19;;;7.33;100.00
19600;BME280;9947;57.722;12.012;2024-03-08T12:26:18;101852.50;;;7.33;100.00
19600;BME280;9947;57.722;12.012;2024-03-08T12:28:51;101851.56;;;7.34;100.00
19600;BME280;9947;57.722;12.012;2024-03-08T12:31:19;101847.69;;;7.39;100.00
19600;BME280;9947;57.722;12.012;2024-03-08T12:33:49;101837.66;;;7.43;100.00
19600;BME280;9947;57.722;12.012;2024-03-08T12:36:22;101839.94;;;7.52;100.00
19600;BME280;9947;57.722;12.012;2024-03-08T12:38:49;101837.56;;;7.65;100.00
19600;BME280;9947;57.722;12.012;2024-03-08T12:41:25;101833.91;;;7.66;100.00
19600;BME280;9947;57.722;12.012;2024-03-08T12:43:55;101834.94;;;7.63;100.00
19600;BME280;9947;57.722;12.012;2024-03-08T12:46:22;101827.28;;;7.73;100.00
19600;BME280;9947;57.722;12.012;2024-03-08T12:48:51;101826.66;;;7.87;100.00
19600;BME280;9947;57.722;12.012;2024-03-08T12:51:20;101821.91;;;7.92;100.00
19600;BME280;9947;57.722;12.012;2024-03-08T12:53:48;101821.81;;;7.93;100.00
19600;BME280;9947;57.722;12.012;2024-03-08T12:56:29;101828.63;;;7.83;100.00
19600;BME280;9947;57.722;12.012;2024-03-08T12:58:56;101831.09;;;7.88;100.00
19600;BME280;9947;57.722;12.012;2024-03-08T13:01:23;101816.13;;;7.99;100.00
19600;BME280;9947;57.722;12.012;2024-03-08T13:03:51;101816.44;;;8.12;100.00
19600;BME280;9947;57.722;12.012;2024-03-08T13:06:21;101812.25;;;8.05;100.00
19600;BME280;9947;57.722;12.012;2024-03-08T13:08:52;101809.50;;;8.07;100.00
19600;BME280;9947;57.722;12.012;2024-03-08T13:11:20;101805.81;;;8.09;100.00
19600;BME280;9947;57.722;12.012;2024-03-08T13:13:52;101804.06;;;8.08;100.00
19600;BME280;9947;57.722;12.012;2024-03-08T13:16:20;101806.28;;;8.17;97.28
19600;BME280;9947;57.722;12.012;2024-03-08T13:18:47;101801.69;;;8.19;98.38
19600;BME280;9947;57.722;12.012;2024-03-08T13:21:15;101801.94;;;8.32;96.50
19600;BME280;9947;57.722;12.012;2024-03-08T13:23:45;101802.03;;;8.30;93.00
19600;BME280;9947;57.722;12.012;2024-03-08T13:26:15;101790.28;;;8.31;95.38
19600;BME280;9947;57.722;12.012;2024-03-08T13:28:46;101790.25;;;8.33;96.08
19600;BME280;9947;57.722;12.012;2024-03-08T13:31:17;101792.19;;;8.29;92.07
19600;BME280;9947;57.722;12.012;2024-03-08T13:33:45;101792.03;;;8.32;90.64
19600;BME280;9947;57.722;12.012;2024-03-08T13:36:14;101785.69;;;8.35;90.49
19600;BME280;9947;57.722;12.012;2024-03-08T13:38:42;101780.47;;;8.30;90.73
19600;BME280;9947;57.722;12.012;2024-03-08T13:41:10;101784.03;;;8.31;87.55
19600;BME280;9947;57.722;12.012;2024-03-08T13:43:40;101777.78;;;8.30;86.48
19600;BME280;9947;57.722;12.012;2024-03-08T13:46:07;101777.19;;;8.43;86.48
19600;BME280;9947;57.722;12.012;2024-03-08T13:48:38;101769.28;;;8.40;89.65
19600;BME280;9947;57.722;12.012;2024-03-08T13:51:06;101763.81;;;8.41;88.85
19600;BME280;9947;57.722;12.012;2024-03-08T13:53:36;101765.16;;;8.50;85.85
19600;BME280;9947;57.722;12.012;2024-03-08T13:56:04;101759.03;;;8.46;80.31
19600;BME280;9947;57.722;12.012;2024-03-08T13:58:31;101758.09;;;8.47;78.38
19600;BME280;9947;57.722;12.012;2024-03-08T14:00:59;101753.97;;;8.57;70.81
19600;BME280;9947;57.722;12.012;2024-03-08T14:03:28;101748.03;;;8.51;74.13